sensor_id;sensor_type;location;lat;lon;timestamp;pressure;altitude;pressure_sealevel;temperature;humidity
22688;BME280;11511;51.514;7.080;2023-10-09T00:00:23;101611.41;;;9.32;100.00
22688;BME280;11511;51.514;7.080;2023-10-09T00:03:18;101613.91;;;9.41;100.00
22688;BME280;11511;51.514;7.080;2023-10-09T00:05:44;101618.28;;;9.42;100.00
22688;BME280;11511;51.514;7.080;2023-10-09T00:08:10;101620.09;;;9.39;100.00
22688;BME280;11511;51.514;7.080;2023-10-09T00:10:36;101608.66;;;9.41;100.00
22688;BME280;11511;51.514;7.080;2023-10-09T00:13:10;101611.97;;;9.54;100.00
22688;BME280;11511;51.514;7.080;2023-10-09T00:15:36;101614.19;;;9.78;100.00
22688;BME280;11511;51.514;7.080;2023-10-09T00:18:01;101614.44;;;10.12;100.00
22688;BME280;11511;51.514;7.080;2023-10-09T00:20:30;101604.56;;;10.27;100.00
22688;BME280;11511;51.514;7.080;2023-10-09T00:22:55;101608.50;;;10.91;100.00
22688;BME280;11511;51.514;7.080;2023-10-09T00:25:22;101610.13;;;10.95;100.00
22688;BME280;11511;51.514;7.080;2023-10-09T00:27:49;101616.28;;;11.34;100.00
22688;BME280;11511;51.514;7.080;2023-10-09T00:30:16;101610.34;;;11.61;100.00
22688;BME280;11511;51.514;7.080;2023-10-09T00:32:47;101587.63;;;12.22;100.00
22688;BME280;11511;51.514;7.080;2023-10-09T00:35:31;101591.03;;;12.58;100.00
22688;BME280;11511;51.514;7.080;2023-10-09T00:38:03;101591.16;;;12.53;100.00
22688;BME280;11511;51.514;7.080;2023-10-09T00:40:46;101579.38;;;12.64;100.00
22688;BME280;11511;51.514;7.080;2023-10-09T00:43:13;101578.84;;;12.82;100.00
22688;BME280;11511;51.514;7.080;2023-10-09T00:45:40;101585.53;;;12.94;100.00
22688;BME280;11511;51.514;7.080;2023-10-09T00:48:09;101588.34;;;12.87;100.00
22688;BME280;11511;51.514;7.080;2023-10-09T00:50:35;101594.81;;;13.07;100.00
22688;BME280;11511;51.514;7.080;2023-10-09T00:53:02;101594.69;;;13.11;100.00
22688;BME280;11511;51.514;7.080;2023-10-09T00:55:35;101584.69;;;13.21;100.00
22688;BME280;11511;51.514;7.080;2023-10-09T00:58:12;101579.69;;;13.12;100.00
22688;BME280;11511;51.514;7.080;2023-10-09T01:00:39;101577.44;;;13.28;100.00
22688;BME280;11511;51.514;7.080;2023-10-09T01:03:18;101566.25;;;13.18;100.00
22688;BME280;11511;51.514;7.080;2023-10-09T01:05:45;101570.13;;;13.36;100.00
22688;BME280;11511;51.514;7.080;2023-10-09T01:08:26;101558.22;;;13.21;100.00
22688;BME280;11511;51.514;7.080;2023-10-09T01:11:14;101561.50;;;13.29;100.00
22688;BME280;11511;51.514;7.080;2023-10-09T01:13:55;101569.41;;;13.31;100.00
22688;BME280;11511;51.514;7.080;2023-10-09T01:16:36;101571.81;;;13.38;100.00
22688;BME280;11511;51.514;7.080;2023-10-09T01:19:01;101580.38;;;13.45;100.00
22688;BME280;11511;51.514;7.080;2023-10-09T01:21:35;101576.22;;;13.38;100.00
22688;BME280;11511;51.514;7.080;2023-10-09T01:24:00;101586.63;;;13.42;100.00
22688;BME280;11511;51.514;7.080;2023-10-09T01:26:25;101576.97;;;13.41;100.00
22688;BME280;11511;51.514;7.080;2023-10-09T01:28:51;101576.53;;;13.55;100.00
22688;BME280;11511;51.514;7.080;2023-10-09T01:31:24;101571.13;;;13.58;100.00
22688;BME280;11511;51.514;7.080;2023-10-09T01:33:52;101581.50;;;13.64;100.00
22688;BME280;11511;51.514;7.080;2023-10-09T01:36:19;101588.28;;;13.46;100.00
22688;BME280;11511;51.514;7.080;2023-10-09T01:38:58;101590.72;;;13.52;100.00
22688;BME280;11511;51.514;7.080;2023-10-09T01:41:24;101583.34;;;13.62;100.00
22688;BME280;11511;51.514;7.080;2023-10-09T01:43:49;101578.66;;;13.44;100.00
22688;BME280;11511;51.514;7.080;2023-10-09T01:46:17;101577.19;;;13.62;100.00
22688;BME280;11511;51.514;7.080;2023-10-09T01:48:45;101578.31;;;13.54;100.00
22688;BME280;11511;51.514;7.080;2023-10-09T01:51:15;101578.88;;;13.38;100.00
22688;BME280;11511;51.514;7.080;2023-10-09T01:53:44;101578.97;;;13.35;100.00
22688;BME280;11511;51.514;7.080;2023-10-09T01:56:13;101584.13;;;13.39;100.00
22688;BME280;11511;51.514;7.080;2023-10-09T01:58:41;101580.53;;;13.40;100.00
22688;BME280;11511;51.514;7.080;2023-10-09T02:01:06;101590.88;;;13.48;100.00
22688;BME280;11511;51.514;7.080;2023-10-09T02:03:32;101587.09;;;13.55;100.00
22688;BME280;11511;51.514;7.080;2023-10-09T02:06:01;101598.75;;;13.49;100.00
22688;BME280;11511;51.514;7.080;2023-10-09T02:08:29;101599.44;;;13.56;100.00
22688;BME280;11511;51.514;7.080;2023-10-09T02:10:55;101588.13;;;13.51;100.00
22688;BME280;11511;51.514;7.080;2023-10-09T02:13:21;101588.97;;;13.51;100.00
22688;BME280;11511;51.514;7.080;2023-10-09T02:15:56;101582.44;;;13.37;100.00
22688;BME280;11511;51.514;7.080;2023-10-09T02:18:23;101586.63;;;13.42;100.00
22688;BME280;11511;51.514;7.080;2023-10-09T02:20:52;101583.34;;;13.62;100.00
22688;BME280;11511;51.514;7.080;2023-10-09T02:23:24;101575.47;;;13.61;100.00
22688;BME280;11511;51.514;7.080;2023-10-09T02:25:58;101574.06;;;13.49;100.00
22688;BME280;11511;51.514;7.080;2023-10-09T02:28:34;101576.28;;;13.63;100.00
22688;BME280;11511;51.514;7.080;2023-10-09T02:31:00;101580.22;;;13.49;100.00
22688;BME280;11511;51.514;7.080;2023-10-09T02:33:27;101574.63;;;13.59;100.00
22688;BME280;11511;51.514;7.080;2023-10-09T02:35:54;101579.56;;;13.69;100.00
22688;BME280;11511;51.514;7.080;2023-10-09T02:38:20;101580.75;;;13.61;100.00
22688;BME280;11511;51.514;7.080;2023-10-09T02:40:50;101581.50;;;13.64;100.00
22688;BME280;11511;51.514;7.080;2023-10-09T02:43:38;101580.78;;;13.85;100.00
22688;BME280;11511;51.514;7.080;2023-10-09T02:46:13;101579.69;;;13.66;100.00
22688;BME280;11511;51.514;7.080;2023-10-09T02:48:42;101579.56;;;13.69;100.00
22688;BME280;11511;51.514;7.080;2023-10-09T02:51:11;101569.91;;;13.93;100.00
22688;BME280;11511;51.514;7.080;2023-10-09T02:54:00;101574.50;;;13.88;100.00
22688;BME280;11511;51.514;7.080;2023-10-09T02:56:32;101566.72;;;13.83;100.00
22688;BME280;11511;51.514;7.080;2023-10-09T02:59:24;101567.31;;;13.92;100.00
22688;BME280;11511;51.514;7.080;2023-10-09T03:01:50;101557.09;;;13.81;100.00
22688;BME280;11511;51.514;7.080;2023-10-09T03:04:18;101557.66;;;13.91;100.00
22688;BME280;11511;51.514;7.080;2023-10-09T03:06:44;101554.94;;;13.92;100.00
22688;BME280;11511;51.514;7.080;2023-10-09T03:09:17;101556.22;;;13.80;100.00
22688;BME280;11511;51.514;7.080;2023-10-09T03:11:44;101550.06;;;14.05;100.00
22688;BME280;11511;51.514;7.080;2023-10-09T03:14:12;101547.69;;;13.97;100.00
22688;BME280;11511;51.514;7.080;2023-10-09T03:16:37;101544.72;;;14.06;100.00
22688;BME280;11511;51.514;7.080;2023-10-09T03:19:03;101534.75;;;14.13;100.00
22688;BME280;11511;51.514;7.080;2023-10-09T03:21:28;101538.97;;;14.18;100.00
22688;BME280;11511;51.514;7.080;2023-10-09T03:23:54;101527.13;;;14.04;100.00
22688;BME280;11511;51.514;7.080;2023-10-09T03:26:21;101529.69;;;14.30;100.00
22688;BME280;11511;51.514;7.080;2023-10-09T03:28:47;101523.41;;;14.09;100.00
22688;BME280;11511;51.514;7.080;2023-10-09T03:31:13;101513.69;;;14.10;100.00
22688;BME280;11511;51.514;7.080;2023-10-09T03:33:41;101515.56;;;14.06;100.00
22688;BME280;11511;51.514;7.080;2023-10-09T03:36:07;101512.47;;;14.18;100.00
22688;BME280;11511;51.514;7.080;2023-10-09T03:38:37;101511.84;;;14.12;100.00
22688;BME280;11511;51.514;7.080;2023-10-09T03:41:06;101502.28;;;14.31;100.00
22688;BME280;11511;51.514;7.080;2023-10-09T03:43:33;101496.97;;;14.08;100.00
22688;BME280;11511;51.514;7.080;2023-10-09T03:46:03;101489.03;;;14.08;100.00
22688;BME280;11511;51.514;7.080;2023-10-09T03:48:30;101489.94;;;14.07;100.00
22688;BME280;11511;51.514;7.080;2023-10-09T03:51:01;101487.19;;;14.10;100.00
22688;BME280;11511;51.514;7.080;2023-10-09T03:53:38;101481.28;;;14.25;100.00
22688;BME280;11511;51.514;7.080;2023-10-09T03:56:12;101482.34;;;14.21;100.00
22688;BME280;11511;51.514;7.080;2023-10-09T03:58:43;101473.41;;;14.23;100.00
22688;BME280;11511;51.514;7.080;2023-10-09T04:01:14;101474.97;;;14.06;100.00
22688;BME280;11511;51.514;7.080;2023-10-09T04:04:03;101476.19;;;14.20;100.00
22688;BME280;11511;51.514;7.080;2023-10-09T04:06:32;101471.66;;;14.22;100.00
22688;BME280;11511;51.514;7.080;2023-10-09T04:09:02;101476.06;;;14.23;100.00
22688;BME280;11511;51.514;7.080;2023-10-09T04:11:40;101462.03;;;14.21;100.00
22688;BME280;11511;51.514;7.080;2023-10-09T04:14:08;101468.78;;;14.29;100.00
22688;BME280;11511;51.514;7.080;2023-10-09T04:16:38;101462.34;;;14.36;100.00
22688;BME280;11511;51.514;7.080;2023-10-09T04:19:16;101449.31;;;14.30;100.00
22688;BME280;11511;51.514;7.080;2023-10-09T04:21:47;101440.56;;;14.51;100.00
22688;BME280;11511;51.514;7.080;2023-10-09T04:24:13;101437.50;;;14.38;100.00
22688;BME280;11511;51.514;7.080;2023-10-09T04:26:40;101444.66;;;14.36;100.00
22688;BME280;11511;51.514;7.080;2023-10-09T04:29:15;101454.56;;;14.31;100.00
22688;BME280;11511;51.514;7.080;2023-10-09T04:31:52;101457.66;;;14.20;100.00
22688;BME280;11511;51.514;7.080;2023-10-09T04:34:18;101453.22;;;14.21;100.00
22688;BME280;11511;51.514;7.080;2023-10-09T04:36:50;101448.53;;;14.28;100.00
22688;BME280;11511;51.514;7.080;2023-10-09T04:39:19;101445.81;;;14.29;100.00
22688;BME280;11511;51.514;7.080;2023-10-09T04:41:57;101444.53;;;14.39;100.00
22688;BME280;11511;51.514;7.080;2023-10-09T04:44:42;101443.91;;;14.33;100.00
22688;BME280;11511;51.514;7.080;2023-10-09T04:47:36;101441.44;;;14.28;100.00
22688;BME280;11511;51.514;7.080;2023-10-09T04:52:34;101456.13;;;14.37;100.00
22688;BME280;11511;51.514;7.080;2023-10-09T04:55:00;101449.31;;;14.53;100.00
22688;BME280;11511;51.514;7.080;2023-10-09T04:57:39;101445.22;;;14.46;100.00
22688;BME280;11511;51.514;7.080;2023-10-09T05:00:24;101449.44;;;14.50;100.00
22688;BME280;11511;51.514;7.080;2023-10-09T05:02:50;101455.31;;;14.58;100.00
22688;BME280;11511;51.514;7.080;2023-10-09T05:05:20;101445.69;;;14.55;100.00
22688;BME280;11511;51.514;7.080;2023-10-09T05:08:18;101433.41;;;14.53;100.00
22688;BME280;11511;51.514;7.080;2023-10-09T05:10:46;101430.09;;;14.70;100.00
22688;BME280;11511;51.514;7.080;2023-10-09T05:13:27;101440.59;;;14.73;100.00
22688;BME280;11511;51.514;7.080;2023-10-09T05:18:30;101450.63;;;14.65;100.00
22688;BME280;11511;51.514;7.080;2023-10-09T05:21:05;101469.06;;;14.46;100.00
22688;BME280;11511;51.514;7.080;2023-10-09T05:23:51;101471.03;;;14.39;100.00
22688;BME280;11511;51.514;7.080;2023-10-09T05:26:46;101479.41;;;14.29;100.00
22688;BME280;11511;51.514;7.080;2023-10-09T05:29:12;101495.75;;;14.41;100.00
22688;BME280;11511;51.514;7.080;2023-10-09T05:31:56;101493.97;;;14.40;100.00
22688;BME280;11511;51.514;7.080;2023-10-09T05:34:26;101512.28;;;14.48;100.00
22688;BME280;11511;51.514;7.080;2023-10-09T05:37:10;101515.00;;;14.46;100.00
22688;BME280;11511;51.514;7.080;2023-10-09T05:39:54;101524.97;;;14.38;100.00
22688;BME280;11511;51.514;7.080;2023-10-09T05:42:44;101520.19;;;14.49;100.00
22688;BME280;11511;51.514;7.080;2023-10-09T05:45:10;101512.44;;;14.43;100.00
22688;BME280;11511;51.514;7.080;2023-10-09T05:47:46;101494.88;;;14.41;100.00
22688;BME280;11511;51.514;7.080;2023-10-09T05:50:30;101489.66;;;14.38;100.00
22688;BME280;11511;51.514;7.080;2023-10-09T05:53:00;101495.56;;;14.46;100.00
22688;BME280;11511;51.514;7.080;2023-10-09T05:55:26;101511.41;;;14.47;100.00
22688;BME280;11511;51.514;7.080;2023-10-09T05:58:11;101524.72;;;14.46;100.00
22688;BME280;11511;51.514;7.080;2023-10-09T06:00:54;101530.94;;;14.45;100.00
22688;BME280;11511;51.514;7.080;2023-10-09T06:03:38;101535.06;;;14.52;100.00
22688;BME280;11511;51.514;7.080;2023-10-09T06:06:23;101536.38;;;14.42;100.00
22688;BME280;11511;51.514;7.080;2023-10-09T06:09:10;101547.00;;;14.40;100.00
22688;BME280;11511;51.514;7.080;2023-10-09T06:11:38;101547.53;;;14.50;100.00
22688;BME280;11511;51.514;7.080;2023-10-09T06:14:05;101556.44;;;14.49;100.00
22688;BME280;11511;51.514;7.080;2023-10-09T06:16:37;101555.34;;;14.53;100.00
22688;BME280;11511;51.514;7.080;2023-10-09T06:19:21;101549.13;;;14.54;100.00
22688;BME280;11511;51.514;7.080;2023-10-09T06:21:57;101554.28;;;14.59;100.00
22688;BME280;11511;51.514;7.080;2023-10-09T06:24:30;101541.72;;;14.64;100.00
22688;BME280;11511;51.514;7.080;2023-10-09T06:26:59;101555.72;;;14.67;100.00
22688;BME280;11511;51.514;7.080;2023-10-09T06:29:28;101547.94;;;14.63;100.00
22688;BME280;11511;51.514;7.080;2023-10-09T06:32:10;101544.47;;;14.61;100.00
22688;BME280;11511;51.514;7.080;2023-10-09T06:35:00;101541.81;;;14.61;100.00
22688;BME280;11511;51.514;7.080;2023-10-09T06:37:43;101547.94;;;14.63;100.00
22688;BME280;11511;51.514;7.080;2023-10-09T06:40:29;101549.44;;;14.70;100.00
22688;BME280;11511;51.514;7.080;2023-10-09T06:43:04;101556.28;;;14.75;100.00
22688;BME280;11511;51.514;7.080;2023-10-09T06:45:41;101563.75;;;14.87;100.00
22688;BME280;11511;51.514;7.080;2023-10-09T06:48:13;101560.25;;;14.87;100.00
22688;BME280;11511;51.514;7.080;2023-10-09T06:51:06;101543.47;;;14.86;100.00
22688;BME280;11511;51.514;7.080;2023-10-09T06:54:01;101525.94;;;14.82;100.00
22688;BME280;11511;51.514;7.080;2023-10-09T06:56:31;101532.91;;;14.85;100.00
22688;BME280;11511;51.514;7.080;2023-10-09T06:59:00;101538.22;;;14.85;100.00
22688;BME280;11511;51.514;7.080;2023-10-09T07:01:30;101548.75;;;14.86;100.00
22688;BME280;11511;51.514;7.080;2023-10-09T07:04:11;101548.66;;;14.89;100.00
22688;BME280;11511;51.514;7.080;2023-10-09T07:06:46;101540.56;;;14.93;100.00
22688;BME280;11511;51.514;7.080;2023-10-09T07:09:13;101553.84;;;14.93;100.00
22688;BME280;11511;51.514;7.080;2023-10-09T07:11:43;101559.94;;;14.95;100.00
22688;BME280;11511;51.514;7.080;2023-10-09T07:14:14;101556.31;;;14.97;100.00
22688;BME280;11511;51.514;7.080;2023-10-09T07:19:30;101560.44;;;15.04;100.00
22688;BME280;11511;51.514;7.080;2023-10-09T07:22:08;101560.44;;;15.04;100.00
22688;BME280;11511;51.514;7.080;2023-10-09T07:24:56;101571.72;;;15.09;100.00
22688;BME280;11511;51.514;7.080;2023-10-09T07:30:07;101576.72;;;15.17;100.00
22688;BME280;11511;51.514;7.080;2023-10-09T07:32:53;101569.16;;;15.30;100.00
22688;BME280;11511;51.514;7.080;2023-10-09T07:35:20;101557.38;;;15.35;100.00
22688;BME280;11511;51.514;7.080;2023-10-09T07:38:06;101526.16;;;15.42;100.00
22688;BME280;11511;51.514;7.080;2023-10-09T07:40:34;101494.53;;;15.36;100.00
22688;BME280;11511;51.514;7.080;2023-10-09T07:43:17;101483.06;;;15.35;100.00
22688;BME280;11511;51.514;7.080;2023-10-09T07:45:43;101512.94;;;15.40;100.00
22688;BME280;11511;51.514;7.080;2023-10-09T07:48:24;101539.16;;;15.48;100.00
22688;BME280;11511;51.514;7.080;2023-10-09T07:50:52;101508.84;;;15.53;100.00
22688;BME280;11511;51.514;7.080;2023-10-09T07:53:23;101525.72;;;15.52;100.00
22688;BME280;11511;51.514;7.080;2023-10-09T07:56:08;101535.09;;;15.39;100.00
22688;BME280;11511;51.514;7.080;2023-10-09T07:58:33;101549.63;;;15.31;100.00
22688;BME280;11511;51.514;7.080;2023-10-09T08:01:13;101541.00;;;15.26;100.00
22688;BME280;11511;51.514;7.080;2023-10-09T08:03:48;101558.53;;;15.30;100.00
22688;BME280;11511;51.514;7.080;2023-10-09T08:06:23;101571.53;;;15.36;100.00
22688;BME280;11511;51.514;7.080;2023-10-09T08:09:04;101572.31;;;15.60;100.00
22688;BME280;11511;51.514;7.080;2023-10-09T08:11:48;101566.25;;;15.98;100.00
22688;BME280;11511;51.514;7.080;2023-10-09T08:14:39;101567.16;;;16.17;100.00
22688;BME280;11511;51.514;7.080;2023-10-09T08:17:13;101564.38;;;16.20;100.00
22688;BME280;11511;51.514;7.080;2023-10-09T08:19:50;101569.81;;;16.17;100.00
22688;BME280;11511;51.514;7.080;2023-10-09T08:22:23;101580.44;;;16.17;100.00
22688;BME280;11511;51.514;7.080;2023-10-09T08:24:48;101601.59;;;16.00;100.00
22688;BME280;11511;51.514;7.080;2023-10-09T08:30:03;101568.50;;;15.87;100.00
22688;BME280;11511;51.514;7.080;2023-10-09T08:32:49;101555.94;;;15.70;100.00
22688;BME280;11511;51.514;7.080;2023-10-09T08:35:30;101569.59;;;15.61;100.00
22688;BME280;11511;51.514;7.080;2023-10-09T08:37:57;101603.09;;;15.65;100.00
22688;BME280;11511;51.514;7.080;2023-10-09T08:40:36;101604.75;;;15.68;100.00
22688;BME280;11511;51.514;7.080;2023-10-09T08:43:18;101600.00;;;15.54;100.00
22688;BME280;11511;51.514;7.080;2023-10-09T08:45:53;101609.69;;;15.55;100.00
22688;BME280;11511;51.514;7.080;2023-10-09T08:48:19;101586.56;;;15.59;100.00
22688;BME280;11511;51.514;7.080;2023-10-09T08:50:48;101548.13;;;15.45;100.00
22688;BME280;11511;51.514;7.080;2023-10-09T08:53:20;101530.59;;;15.41;100.00
22688;BME280;11511;51.514;7.080;2023-10-09T08:55:46;101520.78;;;15.43;100.00
22688;BME280;11511;51.514;7.080;2023-10-09T08:58:14;101501.13;;;15.47;100.00
22688;BME280;11511;51.514;7.080;2023-10-09T09:00:51;101483.69;;;15.62;100.00
22688;BME280;11511;51.514;7.080;2023-10-09T09:03:19;101487.38;;;15.80;100.00
22688;BME280;11511;51.514;7.080;2023-10-09T09:05:56;101475.00;;;16.37;100.00
22688;BME280;11511;51.514;7.080;2023-10-09T09:08:23;101492.22;;;16.67;100.00
22688;BME280;11511;51.514;7.080;2023-10-09T09:11:03;101488.88;;;17.17;100.00
22688;BME280;11511;51.514;7.080;2023-10-09T09:13:44;101470.00;;;16.68;100.00
22688;BME280;11511;51.514;7.080;2023-10-09T09:16:20;101463.47;;;16.92;100.00
22688;BME280;11511;51.514;7.080;2023-10-09T09:18:54;101471.38;;;16.94;100.00
22688;BME280;11511;51.514;7.080;2023-10-09T09:21:29;101479.97;;;16.82;100.00
22688;BME280;11511;51.514;7.080;2023-10-09T09:23:56;101476.56;;;17.14;100.00
22688;BME280;11511;51.514;7.080;2023-10-09T09:26:34;101469.28;;;17.87;100.00
22688;BME280;11511;51.514;7.080;2023-10-09T09:29:05;101454.84;;;18.55;100.00
22688;BME280;11511;51.514;7.080;2023-10-09T09:31:31;101436.28;;;19.00;100.00
22688;BME280;11511;51.514;7.080;2023-10-09T09:34:04;101425.34;;;19.48;100.00
22688;BME280;11511;51.514;7.080;2023-10-09T09:36:34;101402.50;;;19.73;100.00
22688;BME280;11511;51.514;7.080;2023-10-09T09:39:00;101406.47;;;18.62;100.00
22688;BME280;11511;51.514;7.080;2023-10-09T09:41:26;101420.53;;;18.95;100.00
22688;BME280;11511;51.514;7.080;2023-10-09T09:43:56;101437.75;;;19.05;100.00
22688;BME280;11511;51.514;7.080;2023-10-09T09:46:26;101442.91;;;19.08;100.00
22688;BME280;11511;51.514;7.080;2023-10-09T09:49:00;101443.50;;;19.13;100.00
22688;BME280;11511;51.514;7.080;2023-10-09T09:51:29;101467.53;;;19.13;100.00
22688;BME280;11511;51.514;7.080;2023-10-09T09:53:55;101489.34;;;18.90;100.00
22688;BME280;11511;51.514;7.080;2023-10-09T09:56:24;101501.56;;;18.31;100.00
22688;BME280;11511;51.514;7.080;2023-10-09T09:58:50;101500.81;;;18.60;100.00
22688;BME280;11511;51.514;7.080;2023-10-09T10:01:21;101510.13;;;18.69;100.00
22688;BME280;11511;51.514;7.080;2023-10-09T10:03:59;101505.31;;;18.76;100.00
22688;BME280;11511;51.514;7.080;2023-10-09T10:06:28;101494.03;;;18.71;100.00
22688;BME280;11511;51.514;7.080;2023-10-09T10:08:57;101497.88;;;20.01;100.00
22688;BME280;11511;51.514;7.080;2023-10-09T10:11:47;101492.56;;;20.84;100.00
22688;BME280;11511;51.514;7.080;2023-10-09T10:14:19;101483.25;;;20.63;100.00
22688;BME280;11511;51.514;7.080;2023-10-09T10:17:07;101500.06;;;20.65;100.00
22688;BME280;11511;51.514;7.080;2023-10-09T10:22:27;101499.25;;;18.56;100.00
22688;BME280;11511;51.514;7.080;2023-10-09T10:24:53;101498.41;;;18.72;100.00
22688;BME280;11511;51.514;7.080;2023-10-09T10:27:20;101500.09;;;19.04;100.00
22688;BME280;11511;51.514;7.080;2023-10-09T10:35:20;101486.13;;;19.15;100.00
22688;BME280;11511;51.514;7.080;2023-10-09T10:37:57;101498.19;;;20.10;100.00
22688;BME280;11511;51.514;7.080;2023-10-09T10:40:36;101487.59;;;20.09;100.00
22688;BME280;11511;51.514;7.080;2023-10-09T10:43:05;101489.66;;;19.61;100.00
22688;BME280;11511;51.514;7.080;2023-10-09T10:45:45;101488.72;;;20.33;100.00
22688;BME280;11511;51.514;7.080;2023-10-09T10:48:10;101477.38;;;21.77;100.00
22688;BME280;11511;51.514;7.080;2023-10-09T10:51:02;101479.78;;;20.75;100.00
22688;BME280;11511;51.514;7.080;2023-10-09T10:53:29;101478.50;;;20.25;100.00
22688;BME280;11511;51.514;7.080;2023-10-09T10:56:01;101473.88;;;20.56;100.00
22688;BME280;11511;51.514;7.080;2023-10-09T10:58:42;101469.88;;;21.56;100.00
22688;BME280;11511;51.514;7.080;2023-10-09T11:01:31;101473.59;;;20.60;100.00
22688;BME280;11511;51.514;7.080;2023-10-09T11:04:23;101474.53;;;20.74;100.00
22688;BME280;11511;51.514;7.080;2023-10-09T11:06:55;101488.97;;;20.71;100.00
22688;BME280;11511;51.514;7.080;2023-10-09T11:09:55;101495.13;;;20.86;100.00
22688;BME280;11511;51.514;7.080;2023-10-09T11:12:28;101486.13;;;20.87;100.00
22688;BME280;11511;51.514;7.080;2023-10-09T11:15:06;101490.53;;;20.88;100.00
22688;BME280;11511;51.514;7.080;2023-10-09T11:18:07;101488.69;;;20.76;100.00
22688;BME280;11511;51.514;7.080;2023-10-09T11:20:39;101484.19;;;21.03;100.00
22688;BME280;11511;51.514;7.080;2023-10-09T11:23:05;101491.56;;;21.26;100.00
22688;BME280;11511;51.514;7.080;2023-10-09T11:25:38;101496.56;;;20.91;100.00
22688;BME280;11511;51.514;7.080;2023-10-09T11:28:20;101485.09;;;21.69;100.00
22688;BME280;11511;51.514;7.080;2023-10-09T11:31:10;101487.66;;;20.36;100.00
22688;BME280;11511;51.514;7.080;2023-10-09T11:33:47;101487.09;;;21.40;100.00
22688;BME280;11511;51.514;7.080;2023-10-09T11:36:22;101484.59;;;21.24;100.00
22688;BME280;11511;51.514;7.080;2023-10-09T11:39:02;101495.50;;;20.10;100.00
22688;BME280;11511;51.514;7.080;2023-10-09T11:41:47;101492.34;;;22.06;100.00
22688;BME280;11511;51.514;7.080;2023-10-09T11:44:15;101485.75;;;21.98;100.00
22688;BME280;11511;51.514;7.080;2023-10-09T11:46:59;101487.34;;;21.75;100.00
22688;BME280;11511;51.514;7.080;2023-10-09T11:49:58;101477.91;;;22.33;100.00
22688;BME280;11511;51.514;7.080;2023-10-09T11:52:27;101478.47;;;21.22;100.00
22688;BME280;11511;51.514;7.080;2023-10-09T11:55:11;101470.25;;;20.98;100.00
22688;BME280;11511;51.514;7.080;2023-10-09T11:57:40;101462.41;;;22.49;100.00
22688;BME280;11511;51.514;7.080;2023-10-09T12:00:06;101456.38;;;21.18;100.00
22688;BME280;11511;51.514;7.080;2023-10-09T12:02:52;101463.72;;;21.02;100.00
22688;BME280;11511;51.514;7.080;2023-10-09T12:05:17;101465.84;;;21.24;100.00
22688;BME280;11511;51.514;7.080;2023-10-09T12:07:45;101468.38;;;20.45;100.00
22688;BME280;11511;51.514;7.080;2023-10-09T12:10:11;101457.06;;;21.08;100.00
22688;BME280;11511;51.514;7.080;2023-10-09T12:12:41;101459.34;;;21.66;100.00
22688;BME280;11511;51.514;7.080;2023-10-09T12:15:12;101465.84;;;20.97;100.00
22688;BME280;11511;51.514;7.080;2023-10-09T12:17:45;101465.47;;;20.62;100.00
22688;BME280;11511;51.514;7.080;2023-10-09T12:20:19;101463.00;;;20.59;100.00
22688;BME280;11511;51.514;7.080;2023-10-09T12:22:58;101472.13;;;20.42;100.00
22688;BME280;11511;51.514;7.080;2023-10-09T12:25:24;101466.28;;;20.50;100.00
22688;BME280;11511;51.514;7.080;2023-10-09T12:27:50;101462.03;;;21.14;100.00
22688;BME280;11511;51.514;7.080;2023-10-09T12:30:19;101469.31;;;21.51;100.00
22688;BME280;11511;51.514;7.080;2023-10-09T12:32:55;101473.47;;;21.03;100.00
22688;BME280;11511;51.514;7.080;2023-10-09T12:35:25;101469.75;;;21.06;100.00
22688;BME280;11511;51.514;7.080;2023-10-09T12:37:52;101471.97;;;21.12;100.00
22688;BME280;11511;51.514;7.080;2023-10-09T12:40:22;101476.59;;;21.62;100.00
22688;BME280;11511;51.514;7.080;2023-10-09T12:42:54;101475.66;;;21.63;100.00
22688;BME280;11511;51.514;7.080;2023-10-09T12:45:27;101475.28;;;21.03;100.00
22688;BME280;11511;51.514;7.080;2023-10-09T12:47:53;101479.00;;;20.46;100.00
22688;BME280;11511;51.514;7.080;2023-10-09T12:50:19;101479.22;;;20.97;100.00
22688;BME280;11511;51.514;7.080;2023-10-09T12:52:56;101486.25;;;20.85;100.00
22688;BME280;11511;51.514;7.080;2023-10-09T12:55:21;101491.69;;;20.84;100.00
22688;BME280;11511;51.514;7.080;2023-10-09T12:57:47;101482.63;;;20.45;100.00
22688;BME280;11511;51.514;7.080;2023-10-09T13:00:13;101480.59;;;20.35;100.00
22688;BME280;11511;51.514;7.080;2023-10-09T13:02:50;101486.31;;;20.57;100.00
22688;BME280;11511;51.514;7.080;2023-10-09T13:05:16;101480.66;;;21.30;100.00
22688;BME280;11511;51.514;7.080;2023-10-09T13:07:51;101488.06;;;21.12;100.00
22688;BME280;11511;51.514;7.080;2023-10-09T13:10:16;101482.66;;;20.99;100.00
22688;BME280;11511;51.514;7.080;2023-10-09T13:12:41;101478.09;;;20.60;100.00
22688;BME280;11511;51.514;7.080;2023-10-09T13:15:08;101486.09;;;21.01;100.00
22688;BME280;11511;51.514;7.080;2023-10-09T13:17:38;101469.59;;;20.53;100.00
22688;BME280;11511;51.514;7.080;2023-10-09T13:20:04;101467.38;;;21.14;100.00
22688;BME280;11511;51.514;7.080;2023-10-09T13:22:39;101464.22;;;21.21;100.00
22688;BME280;11511;51.514;7.080;2023-10-09T13:25:07;101464.41;;;21.18;100.00
22688;BME280;11511;51.514;7.080;2023-10-09T13:27:32;101470.34;;;20.97;100.00
22688;BME280;11511;51.514;7.080;2023-10-09T13:30:02;101465.47;;;22.19;100.00
22688;BME280;11511;51.514;7.080;2023-10-09T13:32:33;101456.56;;;21.55;100.00